createdAt,value
2022-12-03T00:00:59.244Z,1.61
2022-12-03T00:05:02.240Z,1.61
2022-12-03T00:09:05.908Z,1.63
2022-12-03T00:13:09.107Z,1.62
2022-12-03T00:17:13.457Z,1.61
2022-12-03T00:21:16.621Z,1.62
2022-12-03T00:25:19.644Z,1.64
2022-12-03T00:29:22.599Z,1.63
2022-12-03T00:33:27.007Z,1.64
2022-12-03T00:37:30.071Z,1.67
2022-12-03T00:41:33.059Z,1.68
2022-12-03T00:45:36.071Z,1.68
2022-12-03T00:49:41.287Z,1.68
2022-12-03T00:53:44.489Z,1.67
2022-12-03T00:57:47.485Z,1.69
2022-12-03T01:01:50.573Z,1.71
2022-12-03T01:05:56.324Z,1.71
2022-12-03T01:09:59.421Z,1.73
2022-12-03T01:14:02.449Z,1.68
2022-12-03T01:18:05.606Z,1.70
2022-12-03T01:22:09.956Z,1.72
2022-12-03T01:26:13.028Z,1.73
2022-12-03T01:30:16.339Z,1.74
2022-12-03T01:34:18.393Z,1.75
2022-12-03T01:38:22.847Z,1.76
2022-12-03T01:42:27.638Z,1.77
2022-12-03T01:46:42.056Z,1.78
2022-12-03T01:50:46.407Z,1.81
2022-12-03T01:54:54.900Z,1.83
2022-12-03T01:58:58.205Z,1.85
2022-12-03T02:03:03.467Z,1.86
2022-12-03T02:07:26.068Z,1.87
2022-12-03T02:11:34.515Z,1.90
2022-12-03T02:15:40.221Z,1.93
2022-12-03T02:19:43.436Z,1.91
2022-12-03T02:23:59.492Z,1.92
2022-12-03T02:28:06.992Z,1.88
2022-12-03T02:32:10.013Z,1.89
2022-12-03T02:36:13.792Z,1.91
2022-12-03T02:40:21.278Z,1.95
2022-12-03T02:44:25.728Z,1.95
2022-12-03T02:48:33.503Z,1.97
2022-12-03T02:52:37.069Z,1.98
2022-12-03T02:56:40.120Z,2.00
2022-12-03T03:00:45.117Z,2.00
2022-12-03T03:04:48.732Z,2.01
2022-12-03T03:08:52.231Z,2.01
2022-12-03T03:12:57.176Z,2.03
2022-12-03T03:17:01.760Z,2.02
2022-12-03T03:21:05.819Z,2.01
2022-12-03T03:25:11.939Z,2.02
2022-12-03T03:29:15.435Z,2.04
2022-12-03T03:33:20.260Z,2.01
2022-12-03T03:37:23.627Z,2.02
2022-12-03T03:41:27.917Z,2.05
2022-12-03T03:45:31.022Z,2.08
2022-12-03T03:49:35.689Z,2.10
2022-12-03T03:53:39.983Z,2.11
2022-12-03T03:57:43.508Z,2.15
2022-12-03T04:01:46.731Z,2.15
2022-12-03T04:05:51.372Z,2.15
2022-12-03T04:09:54.372Z,2.15
2022-12-03T04:13:56.385Z,2.18
2022-12-03T04:18:16.769Z,2.19
2022-12-03T04:22:38.841Z,2.23
2022-12-03T04:27:00.366Z,2.21
2022-12-03T04:31:23.711Z,2.18
2022-12-03T04:35:43.751Z,2.17
2022-12-03T04:39:48.431Z,2.20
2022-12-03T04:44:05.249Z,2.24
2022-12-03T04:48:08.250Z,2.19
2022-12-03T04:52:12.860Z,2.17
2022-12-03T04:56:17.381Z,2.18
2022-12-03T05:00:20.909Z,2.18
2022-12-03T05:04:24.203Z,2.15
2022-12-03T05:08:27.197Z,2.15
2022-12-03T05:12:31.547Z,2.18
2022-12-03T05:16:34.812Z,2.17
2022-12-03T05:20:47.103Z,2.15
2022-12-03T05:24:54.497Z,2.13
2022-12-03T05:28:59.088Z,2.14
2022-12-03T05:33:02.194Z,2.17
2022-12-03T05:37:05.234Z,2.19
2022-12-03T05:41:28.931Z,2.20
2022-12-03T05:45:36.404Z,2.19
2022-12-03T05:49:39.413Z,2.23
2022-12-03T05:53:42.567Z,2.21
2022-12-03T05:57:46.366Z,2.21
2022-12-03T06:01:50.724Z,2.19
2022-12-03T06:05:53.954Z,2.17
2022-12-03T06:09:56.996Z,2.16
2022-12-03T06:13:59.948Z,2.14
2022-12-03T06:18:04.419Z,2.15
2022-12-03T06:22:07.485Z,2.12
2022-12-03T06:26:10.672Z,2.12
2022-12-03T06:30:15.473Z,2.11
2022-12-03T06:34:19.898Z,2.12
2022-12-03T06:38:23.413Z,2.12
2022-12-03T06:42:26.412Z,2.11
2022-12-03T06:46:29.516Z,2.12
2022-12-03T06:50:34.132Z,2.12
2022-12-03T06:54:37.088Z,2.11
2022-12-03T06:58:40.026Z,2.13
2022-12-03T07:02:44.657Z,2.13
2022-12-03T07:06:51.029Z,2.15
2022-12-03T07:10:54.053Z,2.17
2022-12-03T07:14:57.357Z,2.18
2022-12-03T07:19:00.663Z,2.18
2022-12-03T07:23:05.078Z,2.18
2022-12-03T07:27:08.116Z,2.21
2022-12-03T07:31:11.181Z,2.21
2022-12-03T07:35:14.850Z,2.22
2022-12-03T07:39:19.290Z,2.23
2022-12-03T07:43:22.275Z,2.26
2022-12-03T07:47:25.501Z,2.26
2022-12-03T07:51:32.169Z,2.26
2022-12-03T07:55:36.993Z,2.26
2022-12-03T07:59:40.154Z,2.25
2022-12-03T08:03:45.453Z,2.24
2022-12-03T08:07:48.683Z,2.30
2022-12-03T08:11:53.379Z,2.28
2022-12-03T08:15:57.085Z,2.28
2022-12-03T08:20:00.403Z,2.28
2022-12-03T08:24:14.679Z,2.31
2022-12-03T08:28:21.654Z,2.32
2022-12-03T08:32:25.344Z,2.33
2022-12-03T08:36:31.919Z,2.37
2022-12-03T08:40:36.500Z,2.38
2022-12-03T08:44:42.532Z,2.41
2022-12-03T08:48:48.993Z,2.45
2022-12-03T08:52:54.265Z,2.47
2022-12-03T08:56:57.728Z,2.49
2022-12-03T09:01:17.492Z,2.55
2022-12-03T09:05:23.284Z,2.61
2022-12-03T09:09:26.647Z,2.64
2022-12-03T09:13:30.579Z,2.65
2022-12-03T09:17:34.968Z,2.66
2022-12-03T09:21:38.001Z,2.65
2022-12-03T09:25:40.963Z,2.63
2022-12-03T09:29:43.963Z,2.62
2022-12-03T09:33:48.390Z,2.63
2022-12-03T09:37:51.458Z,2.62
2022-12-03T09:41:56.377Z,2.64
2022-12-03T09:45:59.654Z,2.62
2022-12-03T09:50:04.827Z,2.63
2022-12-03T09:54:08.628Z,2.65
2022-12-03T09:58:13.663Z,2.64
2022-12-03T10:02:22.328Z,2.68
2022-12-03T10:06:26.696Z,2.69
2022-12-03T10:10:30.935Z,2.79
2022-12-03T10:14:33.991Z,2.81
2022-12-03T10:18:41.571Z,2.78
2022-12-03T10:22:48.728Z,2.78
2022-12-03T10:26:56.640Z,2.75
2022-12-03T10:31:00.509Z,2.75
2022-12-03T10:35:12.043Z,2.79
2022-12-03T10:39:17.894Z,2.83
2022-12-03T10:43:26.307Z,2.95
2022-12-03T10:47:29.628Z,2.97
2022-12-03T10:51:32.836Z,2.99
2022-12-03T10:55:40.779Z,2.98
2022-12-03T10:59:44.208Z,2.96
2022-12-03T11:03:47.688Z,2.99
2022-12-03T11:07:51.325Z,3.03
2022-12-03T11:11:56.048Z,3.04
2022-12-03T11:16:00.234Z,3.04
2022-12-03T11:20:03.456Z,3.04
2022-12-03T11:24:27.451Z,3.03
2022-12-03T11:28:56.655Z,3.05
2022-12-03T11:33:03.065Z,3.02
2022-12-03T11:37:24.912Z,3.00
2022-12-03T11:41:37.116Z,2.95
2022-12-03T11:45:41.545Z,2.93
2022-12-03T11:49:49.266Z,2.89
2022-12-03T11:53:54.092Z,2.87
2022-12-03T11:57:59.463Z,2.88
2022-12-03T12:02:21.121Z,2.93
2022-12-03T12:06:24.130Z,2.93
2022-12-03T12:10:41.958Z,2.97
2022-12-03T12:14:46.081Z,2.92
2022-12-03T12:18:55.135Z,2.90
2022-12-03T12:23:23.993Z,2.93
2022-12-03T12:27:33.101Z,2.97
2022-12-03T12:31:36.232Z,2.97
2022-12-03T12:35:39.332Z,2.96
2022-12-03T12:39:44.058Z,2.95
2022-12-03T12:43:47.271Z,2.98
2022-12-03T12:47:57.322Z,3.01
2022-12-03T12:52:01.235Z,3.05
2022-12-03T12:56:12.511Z,3.08
2022-12-03T13:00:20.843Z,3.06
2022-12-03T13:04:25.220Z,3.04
2022-12-03T13:08:31.673Z,3.04
2022-12-03T13:12:37.991Z,3.06
2022-12-03T13:16:41.246Z,3.10
2022-12-03T13:20:44.295Z,3.07
2022-12-03T13:24:50.659Z,3.07
2022-12-03T13:28:57.864Z,3.05
2022-12-03T13:33:02.118Z,3.07
2022-12-03T13:37:13.414Z,3.13
2022-12-03T13:41:37.458Z,3.12
2022-12-03T13:45:44.816Z,3.09
2022-12-03T13:49:53.765Z,3.10
2022-12-03T13:53:59.156Z,3.07
2022-12-03T13:58:02.171Z,3.04
2022-12-03T14:02:06.570Z,3.06
2022-12-03T14:06:09.663Z,3.06
2022-12-03T14:10:13.654Z,3.05
2022-12-03T14:14:16.964Z,3.05
2022-12-03T14:18:21.393Z,3.06
2022-12-03T14:22:25.457Z,3.05
2022-12-03T14:26:28.493Z,3.05
2022-12-03T14:30:31.486Z,3.05
2022-12-03T14:34:35.832Z,3.06
2022-12-03T14:38:39.091Z,3.06
2022-12-03T14:42:42.071Z,3.07
2022-12-03T14:46:45.056Z,3.08
2022-12-03T14:50:49.463Z,3.07
2022-12-03T14:54:52.474Z,3.05
2022-12-03T14:58:55.428Z,3.02
2022-12-03T15:02:58.517Z,2.96
2022-12-03T15:07:05.008Z,2.97
2022-12-03T15:11:08.141Z,2.99
2022-12-03T15:15:12.015Z,2.96
2022-12-03T15:19:15.245Z,2.95
2022-12-03T15:23:19.622Z,3.00
2022-12-03T15:27:22.625Z,3.00
2022-12-03T15:31:25.894Z,3.03
2022-12-03T15:35:29.229Z,2.95
2022-12-03T15:39:36.419Z,2.98
2022-12-03T15:43:39.475Z,3.00
2022-12-03T15:47:42.504Z,2.99
2022-12-03T15:51:45.593Z,2.97
2022-12-03T15:55:49.940Z,2.97
2022-12-03T15:59:53.115Z,2.98
2022-12-03T16:03:56.454Z,3.01
2022-12-03T16:07:59.516Z,3.03
2022-12-03T16:12:04.354Z,3.07
2022-12-03T16:16:07.687Z,3.09
2022-12-03T16:20:11.247Z,3.10
2022-12-03T16:24:14.338Z,3.11
2022-12-03T16:28:19.037Z,3.14
2022-12-03T16:32:21.991Z,3.16
2022-12-03T16:36:25.110Z,3.21
2022-12-03T16:40:28.155Z,3.19
2022-12-03T16:44:54.104Z,3.22
2022-12-03T16:48:58.771Z,3.22
2022-12-03T16:53:01.740Z,3.22
2022-12-03T16:57:05.172Z,3.23
2022-12-03T17:01:10.005Z,3.26
2022-12-03T17:05:13.116Z,3.27
2022-12-03T17:09:16.211Z,3.38
2022-12-03T17:13:19.860Z,3.38
2022-12-03T17:17:24.276Z,3.38
2022-12-03T17:21:30.871Z,3.40
2022-12-03T17:25:36.967Z,3.36
2022-12-03T17:29:40.038Z,3.35
2022-12-03T17:33:45.527Z,3.35
2022-12-03T17:37:48.797Z,3.33
2022-12-03T17:41:53.537Z,3.33
2022-12-03T17:45:56.620Z,3.34
2022-12-03T17:50:00.963Z,3.36
2022-12-03T17:54:04.013Z,3.39
2022-12-03T17:58:07.487Z,3.36
2022-12-03T18:02:10.508Z,3.37
2022-12-03T18:06:14.914Z,3.39
2022-12-03T18:10:18.528Z,3.42
2022-12-03T18:14:21.910Z,3.46
2022-12-03T18:18:24.936Z,3.47
2022-12-03T18:22:29.901Z,3.50
2022-12-03T18:26:33.170Z,3.52
2022-12-03T18:30:36.268Z,3.54
2022-12-03T18:34:39.285Z,3.54
2022-12-03T18:38:43.782Z,3.52
2022-12-03T18:42:47.150Z,3.53
2022-12-03T18:46:54.705Z,3.52
2022-12-03T18:50:57.917Z,3.52
2022-12-03T18:55:02.352Z,3.52
2022-12-03T18:59:06.623Z,3.53
2022-12-03T19:03:09.723Z,3.52
2022-12-03T19:07:13.281Z,3.55
2022-12-03T19:11:17.673Z,3.55
2022-12-03T19:15:21.071Z,3.55
2022-12-03T19:19:27.240Z,3.60
2022-12-03T19:23:30.242Z,3.61
2022-12-03T19:27:34.687Z,3.61
2022-12-03T19:31:38.132Z,3.60
2022-12-03T19:35:41.239Z,3.58
2022-12-03T19:39:44.247Z,3.62
2022-12-03T19:43:52.171Z,3.63
2022-12-03T19:47:55.178Z,3.63
2022-12-03T19:51:58.160Z,3.66
2022-12-03T19:56:02.777Z,3.70
2022-12-03T20:00:09.114Z,3.72
2022-12-03T20:04:15.236Z,3.72
2022-12-03T20:08:18.434Z,3.73
2022-12-03T20:12:21.571Z,3.70
2022-12-03T20:16:27.536Z,3.71
2022-12-03T20:20:30.625Z,3.69
2022-12-03T20:24:33.707Z,3.70
2022-12-03T20:28:37.176Z,3.68
2022-12-03T20:32:45.341Z,3.67
2022-12-03T20:36:48.713Z,3.66
2022-12-03T20:40:51.773Z,3.68
2022-12-03T20:44:55.334Z,3.70
2022-12-03T20:49:00.064Z,3.70
2022-12-03T20:53:23.649Z,3.70
2022-12-03T20:57:26.084Z,3.70
2022-12-03T21:01:29.576Z,3.69
2022-12-03T21:05:33.921Z,3.72
2022-12-03T21:09:37.136Z,3.71
2022-12-03T21:13:41.305Z,3.71
2022-12-03T21:17:44.341Z,3.72
2022-12-03T21:21:48.742Z,3.72
2022-12-03T21:25:52.871Z,3.74
2022-12-03T21:29:56.229Z,3.76
2022-12-03T21:34:00.005Z,3.78
2022-12-03T21:38:05.007Z,3.81
2022-12-03T21:42:34.718Z,3.84
2022-12-03T21:47:12.688Z,3.81
2022-12-03T21:51:01.502Z,3.79
2022-12-03T21:55:06.537Z,3.81
2022-12-03T21:59:09.694Z,3.84
2022-12-03T22:03:12.843Z,3.84
2022-12-03T22:07:15.949Z,3.85
2022-12-03T22:11:22.461Z,3.86
2022-12-03T22:15:25.552Z,3.85
2022-12-03T22:19:28.773Z,3.86
2022-12-03T22:23:32.526Z,3.82
2022-12-03T22:27:37.228Z,3.80
2022-12-03T22:31:40.292Z,3.80
2022-12-03T22:35:43.336Z,3.85
2022-12-03T22:39:46.284Z,3.83
2022-12-03T22:43:51.095Z,3.82
2022-12-03T22:47:54.032Z,3.83
2022-12-03T22:51:57.039Z,3.87
2022-12-03T22:56:01.439Z,3.88
2022-12-03T23:00:11.142Z,3.89
2022-12-03T23:04:14.506Z,3.92
2022-12-03T23:08:20.256Z,3.95
2022-12-03T23:12:23.405Z,3.94
2022-12-03T23:16:31.032Z,3.95
2022-12-03T23:20:34.107Z,3.96
2022-12-03T23:24:37.734Z,3.96
2022-12-03T23:28:43.042Z,3.98
2022-12-03T23:32:47.554Z,3.97
2022-12-03T23:36:50.571Z,3.97
2022-12-03T23:40:53.884Z,3.98
2022-12-03T23:44:56.901Z,3.99
2022-12-03T23:49:01.279Z,4.02
2022-12-03T23:53:04.459Z,4.01
2022-12-03T23:57:07.445Z,4.05
